sensor_id;sensor_type;location;lat;lon;timestamp;pressure;altitude;pressure_sealevel;temperature
9798;BMP180;4938;57.492;12.652;2022-07-23T00:02:32;81717.47;;;-136.68
9798;BMP180;4938;57.492;12.652;2022-07-23T00:05:19;81691.16;;;-136.68
9798;BMP180;4938;57.492;12.652;2022-07-23T00:08:06;81585.94;;;-136.68
9798;BMP180;4938;57.492;12.652;2022-07-23T00:10:53;81715.44;;;-136.68
9798;BMP180;4938;57.492;12.652;2022-07-23T00:13:40;81737.72;;;-136.68
9798;BMP180;4938;57.492;12.652;2022-07-23T00:16:28;81745.81;;;-136.68
9798;BMP180;4938;57.492;12.652;2022-07-23T00:19:16;81719.50;;;-136.68
9798;BMP180;4938;57.492;12.652;2022-07-23T00:22:03;81719.50;;;-136.68
9798;BMP180;4938;57.492;12.652;2022-07-23T00:24:50;81715.44;;;-136.68
9798;BMP180;4938;57.492;12.652;2022-07-23T00:27:37;81717.47;;;-136.68
9798;BMP180;4938;57.492;12.652;2022-07-23T00:30:24;81727.59;;;-136.68
9798;BMP180;4938;57.492;12.652;2022-07-23T00:33:12;81733.66;;;-136.68
9798;BMP180;4938;57.492;12.652;2022-07-23T00:36:00;81729.63;;;-136.68
9798;BMP180;4938;57.492;12.652;2022-07-23T00:38:47;81733.66;;;-136.68
9798;BMP180;4938;57.492;12.652;2022-07-23T00:41:34;81717.47;;;-136.68
9798;BMP180;4938;57.492;12.652;2022-07-23T00:44:23;81707.34;;;-136.68
9798;BMP180;4938;57.492;12.652;2022-07-23T00:47:10;81731.63;;;-136.68
9798;BMP180;4938;57.492;12.652;2022-07-23T00:49:57;81715.44;;;-136.68
9798;BMP180;4938;57.492;12.652;2022-07-23T00:52:45;81725.56;;;-136.68
9798;BMP180;4938;57.492;12.652;2022-07-23T00:55:32;81723.53;;;-136.68
9798;BMP180;4938;57.492;12.652;2022-07-23T00:58:20;81727.59;;;-136.68
9798;BMP180;4938;57.492;12.652;2022-07-23T01:01:07;81715.44;;;-136.68
9798;BMP180;4938;57.492;12.652;2022-07-23T01:03:54;81713.41;;;-136.68
9798;BMP180;4938;57.492;12.652;2022-07-23T01:06:42;81749.84;;;-136.68
9798;BMP180;4938;57.492;12.652;2022-07-23T01:09:31;81739.72;;;-136.68
9798;BMP180;4938;57.492;12.652;2022-07-23T01:12:18;81753.91;;;-136.68
9798;BMP180;4938;57.492;12.652;2022-07-23T01:15:06;81747.81;;;-136.68
9798;BMP180;4938;57.492;12.652;2022-07-23T01:17:53;81685.09;;;-136.68
9798;BMP180;4938;57.492;12.652;2022-07-23T01:20:40;81733.66;;;-136.68
9798;BMP180;4938;57.492;12.652;2022-07-23T01:23:28;81757.94;;;-136.68
9798;BMP180;4938;57.492;12.652;2022-07-23T01:26:15;81705.34;;;-136.68
9798;BMP180;4938;57.492;12.652;2022-07-23T01:29:03;81703.31;;;-136.68
9798;BMP180;4938;57.492;12.652;2022-07-23T01:31:50;81707.34;;;-136.68
9798;BMP180;4938;57.492;12.652;2022-07-23T01:34:37;81731.63;;;-136.68
9798;BMP180;4938;57.492;12.652;2022-07-23T01:37:25;81725.56;;;-136.68
9798;BMP180;4938;57.492;12.652;2022-07-23T01:40:13;81745.81;;;-136.68
9798;BMP180;4938;57.492;12.652;2022-07-23T01:43:00;81717.47;;;-136.68
9798;BMP180;4938;57.492;12.652;2022-07-23T01:45:47;81749.84;;;-136.68
9798;BMP180;4938;57.492;12.652;2022-07-23T01:48:34;81739.72;;;-136.68
9798;BMP180;4938;57.492;12.652;2022-07-23T01:51:21;81735.69;;;-136.68
9798;BMP180;4938;57.492;12.652;2022-07-23T01:54:08;81723.53;;;-136.68
9798;BMP180;4938;57.492;12.652;2022-07-23T01:56:57;81739.72;;;-136.68
9798;BMP180;4938;57.492;12.652;2022-07-23T01:59:44;81735.69;;;-136.68
9798;BMP180;4938;57.492;12.652;2022-07-23T02:02:31;81759.97;;;-136.68
9798;BMP180;4938;57.492;12.652;2022-07-23T02:05:18;81735.69;;;-136.68
9798;BMP180;4938;57.492;12.652;2022-07-23T02:08:05;81731.63;;;-136.68
9798;BMP180;4938;57.492;12.652;2022-07-23T02:10:52;81731.63;;;-136.68
9798;BMP180;4938;57.492;12.652;2022-07-23T02:13:40;81762.00;;;-136.68
9798;BMP180;4938;57.492;12.652;2022-07-23T02:16:27;81731.63;;;-136.68
9798;BMP180;4938;57.492;12.652;2022-07-23T02:19:15;81759.97;;;-136.68
9798;BMP180;4938;57.492;12.652;2022-07-23T02:22:02;81764.00;;;-136.68
9798;BMP180;4938;57.492;12.652;2022-07-23T02:24:48;81764.00;;;-136.68
9798;BMP180;4938;57.492;12.652;2022-07-23T02:27:36;81753.91;;;-136.68
9798;BMP180;4938;57.492;12.652;2022-07-23T02:30:24;81749.84;;;-136.68
9798;BMP180;4938;57.492;12.652;2022-07-23T02:33:11;81751.88;;;-136.68
9798;BMP180;4938;57.492;12.652;2022-07-23T02:35:58;81743.78;;;-136.68
9798;BMP180;4938;57.492;12.652;2022-07-23T02:38:45;81745.81;;;-136.68
9798;BMP180;4938;57.492;12.652;2022-07-23T02:41:32;81743.78;;;-136.68
9798;BMP180;4938;57.492;12.652;2022-07-23T02:44:19;81755.91;;;-136.68
9798;BMP180;4938;57.492;12.652;2022-07-23T02:47:08;81737.72;;;-136.68
9798;BMP180;4938;57.492;12.652;2022-07-23T02:49:54;81723.53;;;-136.68
9798;BMP180;4938;57.492;12.652;2022-07-23T02:52:41;81747.81;;;-136.68
9798;BMP180;4938;57.492;12.652;2022-07-23T02:55:28;81764.00;;;-136.68
9798;BMP180;4938;57.492;12.652;2022-07-23T02:58:16;81747.81;;;-136.68
9798;BMP180;4938;57.492;12.652;2022-07-23T03:01:03;81751.88;;;-136.68
9798;BMP180;4938;57.492;12.652;2022-07-23T03:03:52;81755.91;;;-136.68
9798;BMP180;4938;57.492;12.652;2022-07-23T03:06:39;81768.06;;;-136.68
9798;BMP180;4938;57.492;12.652;2022-07-23T03:09:26;81731.63;;;-136.68
9798;BMP180;4938;57.492;12.652;2022-07-23T03:12:13;81739.72;;;-136.68
9798;BMP180;4938;57.492;12.652;2022-07-23T03:15:00;81747.81;;;-136.68
9798;BMP180;4938;57.492;12.652;2022-07-23T03:17:47;81776.16;;;-136.68
9798;BMP180;4938;57.492;12.652;2022-07-23T03:20:35;81749.84;;;-136.68
9798;BMP180;4938;57.492;12.652;2022-07-23T03:23:22;81745.81;;;-136.68
9798;BMP180;4938;57.492;12.652;2022-07-23T03:26:09;81755.91;;;-136.68
9798;BMP180;4938;57.492;12.652;2022-07-23T03:28:56;81731.63;;;-136.68
9798;BMP180;4938;57.492;12.652;2022-07-23T03:31:43;81741.75;;;-136.68
9798;BMP180;4938;57.492;12.652;2022-07-23T03:34:30;81739.72;;;-136.68
9798;BMP180;4938;57.492;12.652;2022-07-23T03:37:18;81670.94;;;-136.68
9798;BMP180;4938;57.492;12.652;2022-07-23T03:40:07;81687.13;;;-136.68
9798;BMP180;4938;57.492;12.652;2022-07-23T03:42:54;81717.47;;;-136.68
9798;BMP180;4938;57.492;12.652;2022-07-23T03:45:41;81674.97;;;-136.68
9798;BMP180;4938;57.492;12.652;2022-07-23T03:48:28;81650.69;;;-136.68
9798;BMP180;4938;57.492;12.652;2022-07-23T03:51:15;81695.22;;;-136.68
9798;BMP180;4938;57.492;12.652;2022-07-23T03:54:03;81687.13;;;-136.68
9798;BMP180;4938;57.492;12.652;2022-07-23T03:56:50;81674.97;;;-136.68
9798;BMP180;4938;57.492;12.652;2022-07-23T03:59:37;81699.25;;;-136.68
9798;BMP180;4938;57.492;12.652;2022-07-23T04:02:24;81274.34;;;-136.68
9798;BMP180;4938;57.492;12.652;2022-07-23T04:05:11;81288.50;;;-136.68
9798;BMP180;4938;57.492;12.652;2022-07-23T04:07:58;81256.13;;;-136.68
9798;BMP180;4938;57.492;12.652;2022-07-23T04:10:47;81292.56;;;-136.68
9798;BMP180;4938;57.492;12.652;2022-07-23T04:13:33;81215.69;;;-136.68
9798;BMP180;4938;57.492;12.652;2022-07-23T04:16:20;81177.22;;;-136.68
9798;BMP180;4938;57.492;12.652;2022-07-23T04:19:07;81136.78;;;-136.68
9798;BMP180;4938;57.492;12.652;2022-07-23T04:21:54;81096.31;;;-136.68
9798;BMP180;4938;57.492;12.652;2022-07-23T04:24:41;81096.31;;;-136.68
9798;BMP180;4938;57.492;12.652;2022-07-23T04:27:30;81055.84;;;-136.68
9798;BMP180;4938;57.492;12.652;2022-07-23T04:30:19;81059.88;;;-136.68
9798;BMP180;4938;57.492;12.652;2022-07-23T04:33:06;81074.06;;;-136.68
9798;BMP180;4938;57.492;12.652;2022-07-23T04:35:52;81063.94;;;-136.68
9798;BMP180;4938;57.492;12.652;2022-07-23T04:38:39;81051.81;;;-136.68
9798;BMP180;4938;57.492;12.652;2022-07-23T04:41:27;81067.97;;;-136.68
9798;BMP180;4938;57.492;12.652;2022-07-23T04:44:15;81067.97;;;-136.68
9798;BMP180;4938;57.492;12.652;2022-07-23T04:47:02;81080.13;;;-136.68
9798;BMP180;4938;57.492;12.652;2022-07-23T04:49:49;81063.94;;;-136.68
9798;BMP180;4938;57.492;12.652;2022-07-23T04:52:36;81084.16;;;-136.68
9798;BMP180;4938;57.492;12.652;2022-07-23T04:55:23;81090.25;;;-136.68
9798;BMP180;4938;57.492;12.652;2022-07-23T04:58:10;81090.25;;;-136.68
9798;BMP180;4938;57.492;12.652;2022-07-23T05:00:58;81043.72;;;-136.68
9798;BMP180;4938;57.492;12.652;2022-07-23T05:03:45;80993.13;;;-136.68
9798;BMP180;4938;57.492;12.652;2022-07-23T05:06:33;80997.19;;;-136.68
9798;BMP180;4938;57.492;12.652;2022-07-23T05:09:20;80989.09;;;-136.68
9798;BMP180;4938;57.492;12.652;2022-07-23T05:12:08;80940.53;;;-136.68
9798;BMP180;4938;57.492;12.652;2022-07-23T05:14:55;81005.28;;;-136.68
9798;BMP180;4938;57.492;12.652;2022-07-23T05:17:43;81041.69;;;-136.68
9798;BMP180;4938;57.492;12.652;2022-07-23T05:20:30;80978.97;;;-136.68
9798;BMP180;4938;57.492;12.652;2022-07-23T05:23:17;80972.91;;;-136.68
9798;BMP180;4938;57.492;12.652;2022-07-23T05:26:04;80985.03;;;-136.68
9798;BMP180;4938;57.492;12.652;2022-07-23T05:28:51;80938.50;;;-136.68
9798;BMP180;4938;57.492;12.652;2022-07-23T05:31:38;80926.38;;;-136.68
9798;BMP180;4938;57.492;12.652;2022-07-23T05:34:27;80932.44;;;-136.68
9798;BMP180;4938;57.492;12.652;2022-07-23T05:37:14;80972.91;;;-136.68
9798;BMP180;4938;57.492;12.652;2022-07-23T05:40:02;81025.50;;;-136.68
9798;BMP180;4938;57.492;12.652;2022-07-23T05:42:51;81013.38;;;-136.68
9798;BMP180;4938;57.492;12.652;2022-07-23T05:45:38;81051.81;;;-136.68
9798;BMP180;4938;57.492;12.652;2022-07-23T05:48:25;81100.34;;;-136.68
9798;BMP180;4938;57.492;12.652;2022-07-23T05:51:14;81128.69;;;-136.68
9798;BMP180;4938;57.492;12.652;2022-07-23T05:54:01;81136.78;;;-136.68
9798;BMP180;4938;57.492;12.652;2022-07-23T05:56:47;81116.53;;;-136.68
9798;BMP180;4938;57.492;12.652;2022-07-23T05:59:35;81120.59;;;-136.68
9798;BMP180;4938;57.492;12.652;2022-07-23T06:02:22;81104.41;;;-136.68
9798;BMP180;4938;57.492;12.652;2022-07-23T06:05:09;81106.41;;;-136.68
9798;BMP180;4938;57.492;12.652;2022-07-23T06:07:58;81116.53;;;-136.68
9798;BMP180;4938;57.492;12.652;2022-07-23T06:10:45;81108.44;;;-136.68
9798;BMP180;4938;57.492;12.652;2022-07-23T06:13:32;81116.53;;;-136.68
9798;BMP180;4938;57.492;12.652;2022-07-23T06:16:19;81088.22;;;-136.68
9798;BMP180;4938;57.492;12.652;2022-07-23T06:19:06;81057.88;;;-136.68
9798;BMP180;4938;57.492;12.652;2022-07-23T06:21:53;81067.97;;;-136.68
9798;BMP180;4938;57.492;12.652;2022-07-23T06:24:41;81084.16;;;-136.68
9798;BMP180;4938;57.492;12.652;2022-07-23T06:27:28;81065.97;;;-136.68
9798;BMP180;4938;57.492;12.652;2022-07-23T06:30:15;81084.16;;;-136.68
9798;BMP180;4938;57.492;12.652;2022-07-23T06:33:02;81096.31;;;-136.68
9798;BMP180;4938;57.492;12.652;2022-07-23T06:35:49;81067.97;;;-136.68
9798;BMP180;4938;57.492;12.652;2022-07-23T06:38:36;81076.06;;;-136.68
9798;BMP180;4938;57.492;12.652;2022-07-23T06:41:25;81047.75;;;-136.68
9798;BMP180;4938;57.492;12.652;2022-07-23T06:44:11;81037.63;;;-136.68
9798;BMP180;4938;57.492;12.652;2022-07-23T06:46:58;81045.72;;;-136.68
9798;BMP180;4938;57.492;12.652;2022-07-23T06:49:45;81007.28;;;-136.68
9798;BMP180;4938;57.492;12.652;2022-07-23T06:52:32;81001.22;;;-136.68
9798;BMP180;4938;57.492;12.652;2022-07-23T06:55:19;81043.72;;;-136.68
9798;BMP180;4938;57.492;12.652;2022-07-23T06:58:08;81059.88;;;-136.68
9798;BMP180;4938;57.492;12.652;2022-07-23T07:00:55;81027.53;;;-136.68
9798;BMP180;4938;57.492;12.652;2022-07-23T07:03:43;81037.63;;;-136.68
9798;BMP180;4938;57.492;12.652;2022-07-23T07:06:30;81070.00;;;-136.68
9798;BMP180;4938;57.492;12.652;2022-07-23T07:09:17;81055.84;;;-136.68
9798;BMP180;4938;57.492;12.652;2022-07-23T07:12:05;81090.25;;;-136.68
9798;BMP180;4938;57.492;12.652;2022-07-23T07:14:53;81063.94;;;-136.68
9798;BMP180;4938;57.492;12.652;2022-07-23T07:17:40;81055.84;;;-136.68
9798;BMP180;4938;57.492;12.652;2022-07-23T07:20:27;81029.53;;;-136.68
9798;BMP180;4938;57.492;12.652;2022-07-23T07:23:14;80981.00;;;-136.68
9798;BMP180;4938;57.492;12.652;2022-07-23T07:26:01;80974.94;;;-136.68
9798;BMP180;4938;57.492;12.652;2022-07-23T07:28:48;80942.56;;;-136.68
9798;BMP180;4938;57.492;12.652;2022-07-23T07:31:36;80930.41;;;-136.68
9798;BMP180;4938;57.492;12.652;2022-07-23T07:34:23;80976.94;;;-136.68
9798;BMP180;4938;57.492;12.652;2022-07-23T07:37:11;80981.00;;;-136.68
9798;BMP180;4938;57.492;12.652;2022-07-23T07:39:58;81009.31;;;-136.68
9798;BMP180;4938;57.492;12.652;2022-07-23T07:42:45;81031.56;;;-136.68
9798;BMP180;4938;57.492;12.652;2022-07-23T07:45:32;81039.66;;;-136.68
9798;BMP180;4938;57.492;12.652;2022-07-23T07:48:21;80995.16;;;-136.68
9798;BMP180;4938;57.492;12.652;2022-07-23T07:51:08;80999.19;;;-136.68
9798;BMP180;4938;57.492;12.652;2022-07-23T07:53:55;80954.69;;;-136.68
9798;BMP180;4938;57.492;12.652;2022-07-23T07:56:42;80995.16;;;-136.68
9798;BMP180;4938;57.492;12.652;2022-07-23T07:59:29;81027.53;;;-136.68
9798;BMP180;4938;57.492;12.652;2022-07-23T08:02:16;81003.25;;;-136.68
9798;BMP180;4938;57.492;12.652;2022-07-23T08:05:05;81035.63;;;-136.68
9798;BMP180;4938;57.492;12.652;2022-07-23T08:07:53;81009.31;;;-136.68
9798;BMP180;4938;57.492;12.652;2022-07-23T08:10:40;80944.56;;;-136.68
9798;BMP180;4938;57.492;12.652;2022-07-23T08:13:27;80995.16;;;-136.68
9798;BMP180;4938;57.492;12.652;2022-07-23T08:16:14;80974.94;;;-136.68
9798;BMP180;4938;57.492;12.652;2022-07-23T08:19:01;80954.69;;;-136.68
9798;BMP180;4938;57.492;12.652;2022-07-23T08:21:50;80938.50;;;-136.68
9798;BMP180;4938;57.492;12.652;2022-07-23T08:24:36;80932.44;;;-136.68
9798;BMP180;4938;57.492;12.652;2022-07-23T08:27:23;80924.34;;;-136.68
9798;BMP180;4938;57.492;12.652;2022-07-23T08:30:10;80942.56;;;-136.68
9798;BMP180;4938;57.492;12.652;2022-07-23T08:32:59;80916.25;;;-136.68
9798;BMP180;4938;57.492;12.652;2022-07-23T08:35:47;80940.53;;;-136.68
9798;BMP180;4938;57.492;12.652;2022-07-23T08:38:37;80930.41;;;-136.68
9798;BMP180;4938;57.492;12.652;2022-07-23T08:41:24;80926.38;;;-136.68
9798;BMP180;4938;57.492;12.652;2022-07-23T08:44:11;80904.13;;;-136.68
9798;BMP180;4938;57.492;12.652;2022-07-23T08:46:59;80904.13;;;-136.68
9798;BMP180;4938;57.492;12.652;2022-07-23T08:49:46;80922.31;;;-136.68
9798;BMP180;4938;57.492;12.652;2022-07-23T08:52:33;80904.13;;;-136.68
9798;BMP180;4938;57.492;12.652;2022-07-23T08:55:22;80916.25;;;-136.68
9798;BMP180;4938;57.492;12.652;2022-07-23T08:58:09;80894.00;;;-136.68
9798;BMP180;4938;57.492;12.652;2022-07-23T09:00:56;80942.56;;;-136.68
9798;BMP180;4938;57.492;12.652;2022-07-23T09:03:43;80918.28;;;-136.68
9798;BMP180;4938;57.492;12.652;2022-07-23T09:06:31;80946.59;;;-136.68
9798;BMP180;4938;57.492;12.652;2022-07-23T09:09:19;80934.47;;;-136.68
9798;BMP180;4938;57.492;12.652;2022-07-23T09:12:10;80792.84;;;-136.68
9798;BMP180;4938;57.492;12.652;2022-07-23T09:15:04;80928.41;;;-136.68
9798;BMP180;4938;57.492;12.652;2022-07-23T09:17:51;80918.28;;;-136.68
9798;BMP180;4938;57.492;12.652;2022-07-23T09:20:38;80932.44;;;-136.68
9798;BMP180;4938;57.492;12.652;2022-07-23T09:23:36;80926.38;;;-136.68
9798;BMP180;4938;57.492;12.652;2022-07-23T09:26:34;80910.19;;;-136.68
9798;BMP180;4938;57.492;12.652;2022-07-23T09:29:25;80726.09;;;-136.68
9798;BMP180;4938;57.492;12.652;2022-07-23T09:32:13;80849.50;;;-136.68
9798;BMP180;4938;57.492;12.652;2022-07-23T09:35:00;80817.13;;;-136.68
9798;BMP180;4938;57.492;12.652;2022-07-23T09:38:00;80817.13;;;-136.68
9798;BMP180;4938;57.492;12.652;2022-07-23T09:41:05;80821.19;;;-136.68
9798;BMP180;4938;57.492;12.652;2022-07-23T09:43:55;80368.09;;;-136.68
9798;BMP180;4938;57.492;12.652;2022-07-23T09:46:45;80786.78;;;-136.68
9798;BMP180;4938;57.492;12.652;2022-07-23T09:49:32;80748.34;;;-136.68
9798;BMP180;4938;57.492;12.652;2022-07-23T09:52:26;80774.66;;;-136.68
9798;BMP180;4938;57.492;12.652;2022-07-23T09:55:13;80752.41;;;-136.68
9798;BMP180;4938;57.492;12.652;2022-07-23T09:58:00;80758.47;;;-136.68
9798;BMP180;4938;57.492;12.652;2022-07-23T10:00:48;80752.41;;;-136.68
9798;BMP180;4938;57.492;12.652;2022-07-23T10:03:37;80687.66;;;-136.68
9798;BMP180;4938;57.492;12.652;2022-07-23T10:06:24;80655.31;;;-136.68
9798;BMP180;4938;57.492;12.652;2022-07-23T10:09:16;80655.31;;;-136.68
9798;BMP180;4938;57.492;12.652;2022-07-23T10:12:10;80627.00;;;-136.68
9798;BMP180;4938;57.492;12.652;2022-07-23T10:15:03;80624.97;;;-136.68
9798;BMP180;4938;57.492;12.652;2022-07-23T10:17:50;80594.63;;;-136.68
9798;BMP180;4938;57.492;12.652;2022-07-23T10:20:39;80614.84;;;-136.68
9798;BMP180;4938;57.492;12.652;2022-07-23T10:23:33;80554.16;;;-136.68
9798;BMP180;4938;57.492;12.652;2022-07-23T10:26:26;80560.22;;;-136.68
9798;BMP180;4938;57.492;12.652;2022-07-23T10:29:22;80542.03;;;-136.68
9798;BMP180;4938;57.492;12.652;2022-07-23T10:32:21;80489.44;;;-136.68
9798;BMP180;4938;57.492;12.652;2022-07-23T10:35:36;80552.16;;;-136.68
9798;BMP180;4938;57.492;12.652;2022-07-23T10:38:27;79890.78;;;-136.68
9798;BMP180;4938;57.492;12.652;2022-07-23T10:41:30;80392.34;;;-136.68
9798;BMP180;4938;57.492;12.652;2022-07-23T10:44:19;80568.31;;;-136.68
9798;BMP180;4938;57.492;12.652;2022-07-23T10:47:08;80580.47;;;-136.68
9798;BMP180;4938;57.492;12.652;2022-07-23T10:50:20;80592.59;;;-136.68
9798;BMP180;4938;57.492;12.652;2022-07-23T10:53:09;80586.53;;;-136.68
9798;BMP180;4938;57.492;12.652;2022-07-23T10:55:58;80616.88;;;-136.68
9798;BMP180;4938;57.492;12.652;2022-07-23T10:58:47;80442.91;;;-136.68
9798;BMP180;4938;57.492;12.652;2022-07-23T11:01:36;80633.06;;;-136.68
9798;BMP180;4938;57.492;12.652;2022-07-23T11:04:50;80657.31;;;-136.68
9798;BMP180;4938;57.492;12.652;2022-07-23T11:08:13;80671.50;;;-136.68
9798;BMP180;4938;57.492;12.652;2022-07-23T11:11:10;80643.16;;;-136.68
9798;BMP180;4938;57.492;12.652;2022-07-23T11:13:57;80661.38;;;-136.68
9798;BMP180;4938;57.492;12.652;2022-07-23T11:16:46;80641.16;;;-136.68
9798;BMP180;4938;57.492;12.652;2022-07-23T11:22:55;81715.44;;;-136.68
9798;BMP180;4938;57.492;12.652;2022-07-23T11:25:42;80669.47;;;-136.68
9798;BMP180;4938;57.492;12.652;2022-07-23T11:28:31;80685.66;;;-136.68
9798;BMP180;4938;57.492;12.652;2022-07-23T11:31:18;80724.09;;;-136.68
9798;BMP180;4938;57.492;12.652;2022-07-23T11:34:30;80756.44;;;-136.68
9798;BMP180;4938;57.492;12.652;2022-07-23T11:37:29;80711.94;;;-136.68
9798;BMP180;4938;57.492;12.652;2022-07-23T11:40:17;80726.09;;;-136.68
9798;BMP180;4938;57.492;12.652;2022-07-23T11:43:06;80493.47;;;-136.68
9798;BMP180;4938;57.492;12.652;2022-07-23T11:45:58;80742.28;;;-136.68
9798;BMP180;4938;57.492;12.652;2022-07-23T11:48:45;80736.22;;;-136.68
9798;BMP180;4938;57.492;12.652;2022-07-23T11:51:32;80768.59;;;-136.68
9798;BMP180;4938;57.492;12.652;2022-07-23T11:54:19;80788.81;;;-136.68
9798;BMP180;4938;57.492;12.652;2022-07-23T11:57:06;80750.38;;;-136.68
9798;BMP180;4938;57.492;12.652;2022-07-23T11:59:55;80760.50;;;-136.68
9798;BMP180;4938;57.492;12.652;2022-07-23T12:02:46;80489.44;;;-136.68
9798;BMP180;4938;57.492;12.652;2022-07-23T12:05:34;80768.59;;;-136.68
9798;BMP180;4938;57.492;12.652;2022-07-23T12:08:22;80752.41;;;-136.68
9798;BMP180;4938;57.492;12.652;2022-07-23T12:11:11;80778.69;;;-136.68
9798;BMP180;4938;57.492;12.652;2022-07-23T12:13:58;80796.91;;;-136.68
9798;BMP180;4938;57.492;12.652;2022-07-23T12:16:46;80778.69;;;-136.68
9798;BMP180;4938;57.492;12.652;2022-07-23T12:19:35;80740.25;;;-136.68
9798;BMP180;4938;57.492;12.652;2022-07-23T12:22:23;80792.84;;;-136.68
9798;BMP180;4938;57.492;12.652;2022-07-23T12:25:12;80762.50;;;-136.68
9798;BMP180;4938;57.492;12.652;2022-07-23T12:28:02;80776.69;;;-136.68
9798;BMP180;4938;57.492;12.652;2022-07-23T12:30:51;80748.34;;;-136.68
9798;BMP180;4938;57.492;12.652;2022-07-23T12:33:39;80794.88;;;-136.68
9798;BMP180;4938;57.492;12.652;2022-07-23T12:36:38;80813.09;;;-136.68
9798;BMP180;4938;57.492;12.652;2022-07-23T12:39:30;80861.63;;;-136.68
9798;BMP180;4938;57.492;12.652;2022-07-23T12:42:17;80841.41;;;-136.68
9798;BMP180;4938;57.492;12.652;2022-07-23T12:45:09;80813.09;;;-136.68
9798;BMP180;4938;57.492;12.652;2022-07-23T12:48:02;80900.06;;;-136.68
9798;BMP180;4938;57.492;12.652;2022-07-23T12:50:53;80859.63;;;-136.68
9798;BMP180;4938;57.492;12.652;2022-07-23T12:53:43;80867.72;;;-136.68
9798;BMP180;4938;57.492;12.652;2022-07-23T12:56:32;80792.84;;;-136.68
9798;BMP180;4938;57.492;12.652;2022-07-23T12:59:19;80835.34;;;-136.68
9798;BMP180;4938;57.492;12.652;2022-07-23T13:02:09;80815.09;;;-136.68
9798;BMP180;4938;57.492;12.652;2022-07-23T13:04:56;80829.28;;;-136.68
9798;BMP180;4938;57.492;12.652;2022-07-23T13:07:43;80479.31;;;-136.68
9798;BMP180;4938;57.492;12.652;2022-07-23T13:10:31;80833.31;;;-136.68
9798;BMP180;4938;57.492;12.652;2022-07-23T13:13:21;80720.03;;;-136.68
9798;BMP180;4938;57.492;12.652;2022-07-23T13:16:08;80214.38;;;-136.68
9798;BMP180;4938;57.492;12.652;2022-07-23T13:18:55;80861.63;;;-136.68
9798;BMP180;4938;57.492;12.652;2022-07-23T13:21:43;80851.53;;;-136.68
9798;BMP180;4938;57.492;12.652;2022-07-23T13:24:31;80847.47;;;-136.68
9798;BMP180;4938;57.492;12.652;2022-07-23T13:27:19;80843.44;;;-136.68
9798;BMP180;4938;57.492;12.652;2022-07-23T13:30:08;80738.25;;;-136.68
9798;BMP180;4938;57.492;12.652;2022-07-23T13:32:56;80558.22;;;-136.68
9798;BMP180;4938;57.492;12.652;2022-07-23T13:35:43;80843.44;;;-136.68
9798;BMP180;4938;57.492;12.652;2022-07-23T13:38:30;80815.09;;;-136.68
9798;BMP180;4938;57.492;12.652;2022-07-23T13:41:18;80792.84;;;-136.68
9798;BMP180;4938;57.492;12.652;2022-07-23T13:44:06;80711.94;;;-136.68
9798;BMP180;4938;57.492;12.652;2022-07-23T13:46:53;80800.94;;;-136.68
9798;BMP180;4938;57.492;12.652;2022-07-23T13:49:40;80776.69;;;-136.68
9798;BMP180;4938;57.492;12.652;2022-07-23T13:52:27;80823.19;;;-136.68
9798;BMP180;4938;57.492;12.652;2022-07-23T13:55:14;80807.03;;;-136.68
9798;BMP180;4938;57.492;12.652;2022-07-23T13:58:02;80796.91;;;-136.68
9798;BMP180;4938;57.492;12.652;2022-07-23T14:00:51;80594.63;;;-136.68
9798;BMP180;4938;57.492;12.652;2022-07-23T14:03:38;80829.28;;;-136.68
9798;BMP180;4938;57.492;12.652;2022-07-23T14:06:25;80845.47;;;-136.68
9798;BMP180;4938;57.492;12.652;2022-07-23T14:09:12;80837.38;;;-136.68
9798;BMP180;4938;57.492;12.652;2022-07-23T14:11:59;80802.97;;;-136.68
9798;BMP180;4938;57.492;12.652;2022-07-23T14:14:46;80744.31;;;-136.68
9798;BMP180;4938;57.492;12.652;2022-07-23T14:17:35;80754.44;;;-136.68
9798;BMP180;4938;57.492;12.652;2022-07-23T14:20:23;80707.91;;;-136.68
9798;BMP180;4938;57.492;12.652;2022-07-23T14:23:10;80691.72;;;-136.68
9798;BMP180;4938;57.492;12.652;2022-07-23T14:25:57;80697.78;;;-136.68
9798;BMP180;4938;57.492;12.652;2022-07-23T14:28:44;80758.47;;;-136.68
9798;BMP180;4938;57.492;12.652;2022-07-23T14:31:33;80703.84;;;-136.68
9798;BMP180;4938;57.492;12.652;2022-07-23T14:34:21;80736.22;;;-136.68
9798;BMP180;4938;57.492;12.652;2022-07-23T14:37:09;80758.47;;;-136.68
9798;BMP180;4938;57.492;12.652;2022-07-23T14:39:56;80764.53;;;-136.68
9798;BMP180;4938;57.492;12.652;2022-07-23T14:42:43;80760.50;;;-136.68
9798;BMP180;4938;57.492;12.652;2022-07-23T14:45:30;80778.69;;;-136.68
9798;BMP180;4938;57.492;12.652;2022-07-23T14:48:17;80776.69;;;-136.68
9798;BMP180;4938;57.492;12.652;2022-07-23T14:51:06;80784.75;;;-136.68
9798;BMP180;4938;57.492;12.652;2022-07-23T14:53:53;80774.66;;;-136.68
9798;BMP180;4938;57.492;12.652;2022-07-23T14:56:40;80732.16;;;-136.68
9798;BMP180;4938;57.492;12.652;2022-07-23T14:59:28;80819.16;;;-136.68
9798;BMP180;4938;57.492;12.652;2022-07-23T15:02:15;80790.84;;;-136.68
9798;BMP180;4938;57.492;12.652;2022-07-23T15:05:03;80837.38;;;-136.68
9798;BMP180;4938;57.492;12.652;2022-07-23T15:07:51;80833.31;;;-136.68
9798;BMP180;4938;57.492;12.652;2022-07-23T15:10:38;80867.72;;;-136.68
9798;BMP180;4938;57.492;12.652;2022-07-23T15:13:25;80887.94;;;-136.68
9798;BMP180;4938;57.492;12.652;2022-07-23T15:16:12;80922.31;;;-136.68
9798;BMP180;4938;57.492;12.652;2022-07-23T15:19:00;80898.06;;;-136.68
9798;BMP180;4938;57.492;12.652;2022-07-23T15:21:47;80930.41;;;-136.68
9798;BMP180;4938;57.492;12.652;2022-07-23T15:24:35;80924.34;;;-136.68
9798;BMP180;4938;57.492;12.652;2022-07-23T15:27:22;80784.75;;;-136.68
9798;BMP180;4938;57.492;12.652;2022-07-23T15:30:10;80887.94;;;-136.68
9798;BMP180;4938;57.492;12.652;2022-07-23T15:32:57;80898.06;;;-136.68
9798;BMP180;4938;57.492;12.652;2022-07-23T15:35:44;80861.63;;;-136.68
9798;BMP180;4938;57.492;12.652;2022-07-23T15:38:31;80845.47;;;-136.68
9798;BMP180;4938;57.492;12.652;2022-07-23T15:41:19;80805.00;;;-136.68
9798;BMP180;4938;57.492;12.652;2022-07-23T15:44:07;80881.88;;;-136.68
9798;BMP180;4938;57.492;12.652;2022-07-23T15:46:54;80873.78;;;-136.68
9798;BMP180;4938;57.492;12.652;2022-07-23T15:49:42;80849.50;;;-136.68
9798;BMP180;4938;57.492;12.652;2022-07-23T15:52:29;80869.72;;;-136.68
9798;BMP180;4938;57.492;12.652;2022-07-23T15:55:16;80853.53;;;-136.68
9798;BMP180;4938;57.492;12.652;2022-07-23T15:58:04;80857.59;;;-136.68
9798;BMP180;4938;57.492;12.652;2022-07-23T16:00:51;80841.41;;;-136.68